Time;durP1;ratioP1;P1;durP2;ratioP2;P2;SDS_P1;SDS_P2;PMS_P1;PMS_P2;Temp;Humidity;BMP_temperature;BMP_pressure;BME280_temperature;BME280_humidity;BME280_pressure;Samples;Min_cycle;Max_cycle;Signal;HPM_P1;HPM_P2
2023/10/07 00:01:26;;;;;;;1.00;1.00;;;;;;;-0.51;100.00;98521.97;6183985;23;20024;-84
2023/10/07 00:03:56;;;;;;;1.00;1.00;;;;;;;-0.47;100.00;98511.84;6183775;23;20039;-84
2023/10/07 00:06:27;;;;;;;0.85;0.85;;;;;;;-0.50;100.00;98518.31;6184157;23;20025;-84
2023/10/07 00:08:54;;;;;;;1.00;1.00;;;;;;;-0.47;100.00;98511.84;6161366;23;20032;-83
2023/10/07 00:11:22;;;;;;;1.10;1.10;;;;;;;-0.47;100.00;98510.00;6194268;23;20017;-84
2023/10/07 00:13:54;;;;;;;1.00;1.00;;;;;;;-0.45;100.00;98505.34;6195511;23;20025;-84
2023/10/07 00:16:23;;;;;;;1.13;1.13;;;;;;;-0.41;100.00;98518.22;6185700;23;20033;-84
2023/10/07 00:18:53;;;;;;;1.00;1.00;;;;;;;-0.41;99.83;98510.25;6187293;23;20092;-83
2023/10/07 00:21:27;;;;;;;0.90;0.90;;;;;;;-0.50;100.00;98515.69;6186838;23;20714;-83
2023/10/07 00:23:57;;;;;;;1.10;1.10;;;;;;;-0.57;100.00;98509.47;6183436;23;20037;-84
2023/10/07 00:26:27;;;;;;;0.90;0.90;;;;;;;-0.54;100.00;98524.19;6182001;23;20024;-82
2023/10/07 00:29:00;;;;;;;1.00;1.00;;;;;;;-0.57;100.00;98517.41;6184913;23;20035;-83
2023/10/07 00:31:33;;;;;;;1.10;1.10;;;;;;;-0.57;100.00;98511.31;6182957;23;20021;-83
2023/10/07 00:34:22;;;;;;;1.08;1.08;;;;;;;-0.59;99.93;98516.78;6184438;23;20024;-83
2023/10/07 00:36:49;;;;;;;1.08;1.08;;;;;;;-0.73;99.98;98507.84;6185824;23;20040;-83
2023/10/07 00:39:23;;;;;;;1.00;1.00;;;;;;;-0.89;100.00;98518.63;6184385;23;20075;-83
2023/10/07 00:41:50;;;;;;;1.10;1.10;;;;;;;-0.99;100.00;98518.88;6183939;23;20049;-85
2023/10/07 00:44:29;;;;;;;1.35;1.25;;;;;;;-1.07;100.00;98508.38;6184210;23;20032;-84
2023/10/07 00:55:28;;;;;;;;;;;;;;;-1.06;100.00;98480.91;6092523;23;20065;-83
2023/10/07 01:00:46;;;;;;;0.88;0.88;;;;;;;-1.10;100.00;98464.56;6067972;23;20046;-83
2023/10/07 01:06:22;;;;;;;1.30;1.20;;;;;;;-1.19;100.00;98447.13;6092337;23;20023;-83
2023/10/07 01:09:26;;;;;;;0.90;0.90;;;;;;;-1.25;100.00;98444.38;6091752;23;20022;-83
2023/10/07 01:11:37;;;;;;;1.00;1.00;;;;;;;-1.19;100.00;98443.63;6084425;23;20419;-84
2023/10/07 01:14:05;;;;;;;1.00;1.00;;;;;;;-1.18;100.00;98445.28;6092590;23;20030;-84
2023/10/07 01:16:42;;;;;;;1.00;1.00;;;;;;;-1.15;100.00;98447.56;6092154;23;20029;-83
2023/10/07 01:21:50;;;;;;;0.90;0.90;;;;;;;-1.06;100.00;98453.59;6092004;23;20030;-82
2023/10/07 01:24:30;;;;;;;1.10;1.10;;;;;;;-1.18;100.00;98448.75;6092476;23;20030;-83
2023/10/07 01:27:02;;;;;;;0.98;0.98;;;;;;;-1.16;100.00;98448.59;6093264;23;20042;-82
2023/10/07 01:29:29;;;;;;;0.90;0.90;;;;;;;-1.26;100.00;98442.75;6092690;23;20059;-84
2023/10/07 01:31:59;;;;;;;0.90;0.90;;;;;;;-1.37;100.00;98444.00;6134840;23;20044;-84
2023/10/07 01:34:34;;;;;;;0.93;0.93;;;;;;;-1.37;100.00;98436.06;6183476;23;20021;-84
2023/10/07 01:37:03;;;;;;;1.10;1.10;;;;;;;-1.38;100.00;98440.53;6181831;23;20075;-84
2023/10/07 01:39:40;;;;;;;0.90;0.90;;;;;;;-1.39;100.00;98423.03;6181367;23;20025;-84
2023/10/07 01:42:12;;;;;;;1.00;1.00;;;;;;;-1.54;100.00;98424.84;6183941;23;20107;-84
2023/10/07 01:44:41;;;;;;;1.10;1.10;;;;;;;-1.65;100.00;98419.97;6182757;23;20059;-84
2023/10/07 01:47:30;;;;;;;1.00;1.00;;;;;;;-1.71;100.00;98416.22;6183719;23;20406;-84
2023/10/07 01:49:57;;;;;;;0.98;0.98;;;;;;;-1.73;100.00;98401.53;6184586;23;20024;-84
2023/10/07 01:52:26;;;;;;;1.10;1.10;;;;;;;-1.70;100.00;98398.53;6185040;23;20029;-84
2023/10/07 01:54:55;;;;;;;0.85;0.85;;;;;;;-1.77;100.00;98401.91;6183618;23;20108;-83
2023/10/07 01:57:22;;;;;;;1.10;1.10;;;;;;;-1.72;100.00;98401.38;6183396;23;20021;-83
2023/10/07 01:59:52;;;;;;;1.00;1.00;;;;;;;-1.84;100.00;98387.75;6183562;23;20028;-84
2023/10/07 02:02:25;;;;;;;0.90;0.90;;;;;;;-1.87;100.00;98398.69;6184979;23;20025;-84
2023/10/07 02:04:55;;;;;;;0.85;0.85;;;;;;;-1.88;100.00;98402.31;6184670;23;20024;-83
2023/10/07 02:07:22;;;;;;;1.00;1.00;;;;;;;-1.92;100.00;98395.78;6184806;23;20449;-83
2023/10/07 02:09:54;;;;;;;0.93;0.93;;;;;;;-1.97;100.00;98398.94;6184838;23;20048;-84
2023/10/07 02:12:24;;;;;;;1.10;1.10;;;;;;;-1.98;100.00;98399.94;6183781;23;20398;-84
2023/10/07 02:14:52;;;;;;;1.00;1.00;;;;;;;-1.95;100.00;98393.47;6183881;23;20025;-84
2023/10/07 02:17:25;;;;;;;1.00;1.00;;;;;;;-1.93;100.00;98393.28;6183736;23;20025;-84
2023/10/07 02:19:53;;;;;;;0.90;0.90;;;;;;;-1.98;100.00;98388.53;6184797;23;20028;-83
2023/10/07 02:22:22;;;;;;;0.90;0.90;;;;;;;-2.01;100.00;98394.19;6184685;23;20124;-84
2023/10/07 02:25:02;;;;;;;1.00;1.00;;;;;;;-1.94;100.00;98384.53;6183174;23;20031;-82
2023/10/07 02:27:41;;;;;;;1.40;1.30;;;;;;;-1.92;100.00;98382.53;6159583;23;20040;-83
2023/10/07 02:30:19;;;;;;;1.13;1.13;;;;;;;-1.93;100.00;98378.25;6184753;23;20017;-84
2023/10/07 02:32:48;;;;;;;1.17;1.17;;;;;;;-1.98;100.00;98375.31;6184975;23;20027;-82
2023/10/07 02:35:19;;;;;;;1.00;1.00;;;;;;;-2.02;100.00;98369.56;6184719;23;20071;-84
2023/10/07 02:37:50;;;;;;;0.90;0.90;;;;;;;-2.05;100.00;98364.66;6183173;23;20292;-84
2023/10/07 02:40:22;;;;;;;0.90;0.90;;;;;;;-2.11;100.00;98362.69;6184374;23;20056;-84
2023/10/07 02:42:51;;;;;;;1.10;1.10;;;;;;;-2.12;100.00;98357.63;6183026;23;20027;-84
2023/10/07 02:47:54;;;;;;;1.30;1.20;;;;;;;-2.09;100.00;98373.94;6182997;23;20017;-83
2023/10/07 02:50:25;;;;;;;1.10;1.10;;;;;;;-2.16;100.00;98362.41;6183753;23;20021;-84
2023/10/07 02:53:01;;;;;;;0.90;0.90;;;;;;;-2.09;100.00;98367.81;6184778;23;20025;-83
2023/10/07 02:55:37;;;;;;;;;;;;;;;-2.02;100.00;98374.03;6183493;23;20027;-84
2023/10/07 02:58:05;;;;;;;1.20;1.20;;;;;;;-1.99;100.00;98371.03;6184466;23;19924;-84
2023/10/07 03:00:35;;;;;;;1.00;1.00;;;;;;;-1.98;100.00;98375.31;6183896;23;20100;-84
2023/10/07 03:03:20;;;;;;;0.93;0.93;;;;;;;-1.94;100.00;98354.63;6184164;23;20382;-84
2023/10/07 03:05:58;;;;;;;0.85;0.85;;;;;;;-2.00;100.00;98335.00;6183984;23;20461;-84
2023/10/07 03:11:23;;;;;;;1.10;1.10;;;;;;;-2.05;100.00;98316.22;6064114;23;20106;-83
2023/10/07 03:13:56;;;;;;;0.90;0.90;;;;;;;-2.00;100.00;98305.91;6064062;23;20027;-85
2023/10/07 03:22:09;;;;;;;1.00;1.00;;;;;;;-2.08;100.00;98277.72;6063702;23;20075;-83
2023/10/07 03:24:41;;;;;;;0.90;0.90;;;;;;;-1.97;100.00;98284.41;6060981;23;20407;-83
2023/10/07 03:27:20;;;;;;;1.02;1.02;;;;;;;-2.03;100.00;98278.00;6064149;23;20027;-83
2023/10/07 03:30:07;;;;;;;1.00;1.00;;;;;;;-2.06;100.00;98262.50;6042740;23;20033;-84
2023/10/07 03:32:54;;;;;;;1.10;1.10;;;;;;;-2.05;100.00;98255.38;6039858;23;20056;-82
2023/10/07 03:35:35;;;;;;;1.10;1.10;;;;;;;-2.07;100.00;98252.94;6063882;23;20023;-84
2023/10/07 03:38:08;;;;;;;1.13;1.13;;;;;;;-2.03;100.00;98245.47;6063935;23;20066;-84
2023/10/07 03:40:38;;;;;;;1.10;1.10;;;;;;;-2.03;100.00;98240.16;6063173;23;20470;-84
2023/10/07 03:43:08;;;;;;;1.13;1.13;;;;;;;-1.99;100.00;98244.09;6063945;23;20110;-84
2023/10/07 03:45:39;;;;;;;1.00;1.00;;;;;;;-1.95;100.00;98242.72;6063452;23;20030;-82
2023/10/07 03:48:22;;;;;;;1.00;1.00;;;;;;;-1.94;100.00;98225.03;6108854;23;20100;-84
2023/10/07 03:51:05;;;;;;;0.95;0.95;;;;;;;-1.96;100.00;98215.44;6183443;23;20515;-84
2023/10/07 03:53:37;;;;;;;1.10;1.10;;;;;;;-1.95;100.00;98216.25;6184019;23;20075;-84
2023/10/07 03:56:07;;;;;;;1.05;1.05;;;;;;;-1.88;100.00;98209.25;6183713;23;20350;-84
2023/10/07 03:58:36;;;;;;;1.10;1.10;;;;;;;-1.71;100.00;98206.41;6183703;23;20112;-84
2023/10/07 04:01:22;;;;;;;1.05;1.05;;;;;;;-1.59;100.00;98199.63;6182582;23;20479;-84
2023/10/07 04:03:50;;;;;;;1.15;1.15;;;;;;;-1.51;100.00;98188.94;6183558;23;20469;-84
2023/10/07 04:06:30;;;;;;;1.00;1.00;;;;;;;-1.44;100.00;98194.28;6182775;23;20047;-85
2023/10/07 04:09:05;;;;;;;1.00;1.00;;;;;;;-1.39;100.00;98186.63;6182352;23;20024;-84
2023/10/07 04:11:36;;;;;;;1.00;1.00;;;;;;;-1.27;100.00;98177.16;6182430;23;20091;-85
2023/10/07 04:14:48;;;;;;;0.98;0.98;;;;;;;-1.19;100.00;98173.56;6183957;23;20039;-83
2023/10/07 04:17:00;;;;;;;1.00;1.00;;;;;;;-1.13;100.00;98170.16;6175862;23;20024;-83
2023/10/07 04:21:58;;;;;;;1.10;1.10;;;;;;;-1.09;100.00;98152.88;6182442;23;20025;-84
2023/10/07 04:24:32;;;;;;;1.05;1.05;;;;;;;-1.07;100.00;98142.91;6183999;23;20021;-85
2023/10/07 04:27:03;;;;;;;1.10;1.10;;;;;;;-1.03;100.00;98136.22;6135307;23;20029;-85
2023/10/07 04:29:31;;;;;;;1.10;1.10;;;;;;;-0.99;100.00;98129.53;6110415;23;20025;-84
2023/10/07 04:32:11;;;;;;;0.98;0.98;;;;;;;-1.03;100.00;98115.03;6134225;23;20373;-84
2023/10/07 04:37:54;;;;;;;1.00;1.00;;;;;;;-0.83;100.00;98125.78;6165669;23;20037;-84
2023/10/07 04:41:16;;;;;;;1.08;1.08;;;;;;;-0.91;100.00;98102.91;6147234;23;20025;-85
2023/10/07 04:47:20;;;;;;;1.10;1.10;;;;;;;-0.80;100.00;98084.84;6179774;23;20025;-84
2023/10/07 04:50:15;;;;;;;1.00;1.00;;;;;;;-0.79;99.80;98079.34;6074291;23;20073;-83
2023/10/07 04:53:12;;;;;;;1.00;1.00;;;;;;;-0.72;99.53;98088.16;6001511;23;20027;-84
2023/10/07 04:55:45;;;;;;;0.90;0.90;;;;;;;-0.74;99.44;98076.09;5978533;23;20069;-84
2023/10/07 04:58:24;;;;;;;1.23;1.20;;;;;;;-0.70;99.20;98066.75;5917954;24;20038;-86
2023/10/07 05:00:54;;;;;;;1.05;1.05;;;;;;;-0.64;98.91;98059.84;5944779;24;20530;-83
2023/10/07 05:03:31;;;;;;;1.05;1.05;;;;;;;-0.63;98.73;98050.88;5946504;24;20530;-86
2023/10/07 05:05:58;;;;;;;1.10;1.10;;;;;;;-0.59;98.26;98057.44;5946352;24;20036;-85
2023/10/07 05:08:27;;;;;;;1.10;1.10;;;;;;;-0.56;98.31;98052.56;5946773;24;20095;-87
2023/10/07 05:11:04;;;;;;;1.05;1.05;;;;;;;-0.55;97.88;98040.94;5945938;24;20029;-84
2023/10/07 05:13:35;;;;;;;0.90;0.90;;;;;;;-0.49;97.42;98042.00;5945688;24;20032;-84
2023/10/07 05:16:08;;;;;;;1.10;1.10;;;;;;;-0.46;96.93;98038.94;5946599;24;20048;-83
2023/10/07 05:18:38;;;;;;;1.20;1.20;;;;;;;-0.46;96.41;98026.53;5922268;24;20061;-84
2023/10/07 05:21:06;;;;;;;1.00;1.00;;;;;;;-0.41;96.20;98015.31;5975763;23;20024;-84
2023/10/07 05:23:34;;;;;;;1.00;1.00;;;;;;;-0.36;96.00;98004.09;6002781;23;20023;-86
2023/10/07 05:26:03;;;;;;;1.10;1.10;;;;;;;-0.32;96.05;97994.75;6003797;23;20032;-84
2023/10/07 05:28:32;;;;;;;1.05;1.05;;;;;;;-0.22;95.76;97980.09;5980505;23;20023;-86
2023/10/07 05:31:03;;;;;;;1.10;1.10;;;;;;;-0.14;95.46;97978.28;6005119;23;20024;-86
2023/10/07 05:33:35;;;;;;;1.05;1.05;;;;;;;-0.10;94.94;97969.72;5961761;23;20460;-83
2023/10/07 05:36:14;;;;;;;1.00;1.00;;;;;;;-0.06;94.64;97959.50;6030498;23;20018;-84
2023/10/07 05:38:44;;;;;;;1.10;1.10;;;;;;;-0.13;94.41;97951.53;6065373;23;20113;-84
2023/10/07 05:41:15;;;;;;;1.00;1.00;;;;;;;-0.05;94.18;97947.88;6064416;23;20471;-84
2023/10/07 05:43:44;;;;;;;0.95;0.95;;;;;;;0.08;94.32;97937.28;6165165;23;20028;-83
2023/10/07 05:46:11;;;;;;;1.00;1.00;;;;;;;0.16;93.56;97930.97;6183578;23;20055;-83
2023/10/07 05:48:40;;;;;;;1.08;1.08;;;;;;;0.20;92.94;97924.22;6185035;23;20021;-82
2023/10/07 05:51:11;;;;;;;1.00;1.00;;;;;;;0.22;92.09;97903.59;6183621;23;20287;-82
2023/10/07 05:53:43;;;;;;;1.10;1.10;;;;;;;0.26;91.63;97904.84;6185319;23;20029;-80
2023/10/07 05:56:10;;;;;;;0.75;0.75;;;;;;;0.33;91.18;97897.69;6183637;23;20145;-82
2023/10/07 05:58:38;;;;;;;1.05;1.05;;;;;;;0.39;90.82;97890.75;6185180;23;20461;-82
2023/10/07 06:01:08;;;;;;;1.10;1.10;;;;;;;0.41;90.41;97873.59;6187864;23;20051;-83
2023/10/07 06:03:36;;;;;;;0.90;0.90;;;;;;;0.39;90.18;97866.84;6188711;23;20270;-82
2023/10/07 06:06:04;;;;;;;1.00;1.00;;;;;;;0.41;89.95;97865.63;6186574;23;20024;-83
2023/10/07 06:08:34;;;;;;;1.10;1.10;;;;;;;0.49;89.33;97837.22;6184819;23;20024;-81
2023/10/07 06:11:02;;;;;;;0.90;0.90;;;;;;;0.52;88.44;97842.13;6184995;23;20044;-82
2023/10/07 06:13:29;;;;;;;1.00;1.00;;;;;;;0.58;87.54;97828.84;6185346;23;20060;-83
2023/10/07 06:15:59;;;;;;;1.00;1.00;;;;;;;0.64;87.37;97827.97;6184688;23;20452;-83
2023/10/07 06:18:26;;;;;;;1.05;1.05;;;;;;;0.66;87.04;97803.88;6133752;23;20025;-83
2023/10/07 06:20:53;;;;;;;1.00;1.00;;;;;;;0.70;86.59;97807.72;6184621;23;20021;-82
2023/10/07 06:23:24;;;;;;;0.98;0.98;;;;;;;0.72;86.55;97789.75;6183465;23;20099;-82
2023/10/07 06:26:01;;;;;;;1.05;1.05;;;;;;;0.79;86.16;97793.19;6181918;23;20035;-83
2023/10/07 06:31:11;;;;;;;1.00;1.00;;;;;;;0.86;85.79;97775.41;6184725;23;20032;-83
2023/10/07 06:33:44;;;;;;;0.98;0.98;;;;;;;0.92;85.78;97767.59;6184139;23;20057;-82
2023/10/07 06:36:14;;;;;;;1.10;1.10;;;;;;;0.88;85.96;97748.59;6184379;23;20071;-84
2023/10/07 06:38:52;;;;;;;0.80;0.80;;;;;;;0.90;86.05;97738.59;6182329;23;20091;-82
2023/10/07 06:41:29;;;;;;;1.00;1.00;;;;;;;0.93;86.17;97754.09;6182509;23;20084;-83
2023/10/07 06:44:02;;;;;;;0.90;0.90;;;;;;;0.97;86.38;97714.66;6182614;23;20032;-81
2023/10/07 06:46:40;;;;;;;1.00;1.00;;;;;;;0.94;86.99;97712.38;6184575;23;20027;-82
2023/10/07 06:49:19;;;;;;;0.98;0.98;;;;;;;0.85;87.59;97698.56;6111937;23;20465;-82
2023/10/07 06:51:56;;;;;;;1.00;1.00;;;;;;;0.93;88.09;97692.19;6159043;23;20552;-83
2023/10/07 06:54:26;;;;;;;1.00;1.00;;;;;;;0.95;88.78;97679.50;6185121;23;20017;-82
2023/10/07 06:56:54;;;;;;;0.90;0.90;;;;;;;0.91;89.25;97672.97;6183104;23;20353;-83
2023/10/07 06:59:27;;;;;;;0.98;0.98;;;;;;;0.95;89.94;97667.03;6184310;23;20449;-82
2023/10/07 07:02:06;;;;;;;1.10;1.10;;;;;;;0.95;90.34;97655.59;6183937;23;20032;-81
2023/10/07 07:04:35;;;;;;;0.88;0.88;;;;;;;1.00;90.81;97653.09;6182116;23;20024;-82
2023/10/07 07:07:10;;;;;;;1.10;1.10;;;;;;;1.01;91.28;97644.09;6184357;23;20453;-82
2023/10/07 07:12:21;;;;;;;0.90;0.90;;;;;;;1.07;92.15;97632.63;6182881;23;20453;-82
2023/10/07 07:15:05;;;;;;;0.98;0.98;;;;;;;1.04;92.58;97622.44;6184238;23;20025;-81
2023/10/07 07:17:35;;;;;;;1.10;1.10;;;;;;;0.99;93.40;97608.97;6184001;23;20025;-82
2023/10/07 07:22:45;;;;;;;1.00;1.00;;;;;;;0.96;94.51;97572.19;6184392;23;20032;-82
2023/10/07 07:25:29;;;;;;;0.90;0.90;;;;;;;0.94;94.97;97559.16;6184697;23;20017;-82
2023/10/07 07:28:00;;;;;;;0.88;0.88;;;;;;;0.95;95.76;97557.31;6110908;23;20450;-82
2023/10/07 07:30:29;;;;;;;1.00;1.00;;;;;;;0.96;96.20;97542.97;6182498;23;20079;-82
2023/10/07 07:33:12;;;;;;;1.10;1.10;;;;;;;0.95;96.87;97530.75;6184419;23;20040;-82
2023/10/07 07:35:43;;;;;;;1.00;1.00;;;;;;;0.96;97.24;97524.38;6183792;23;20448;-81
2023/10/07 07:41:05;;;;;;;0.90;0.90;;;;;;;0.90;98.13;97483.56;6183219;23;20025;-82
2023/10/07 07:43:39;;;;;;;1.08;1.08;;;;;;;0.98;98.49;97493.91;6183225;23;20028;-82
2023/10/07 07:48:53;;;;;;;0.90;0.90;;;;;;;1.02;99.14;97467.72;6183663;23;20028;-81
2023/10/07 07:51:26;;;;;;;0.98;0.98;;;;;;;1.01;99.41;97463.44;6181893;23;20076;-81
2023/10/07 07:53:54;;;;;;;0.98;0.98;;;;;;;0.95;100.00;97437.75;6183435;23;20031;-82
2023/10/07 07:56:22;;;;;;;1.00;1.00;;;;;;;1.04;100.00;97413.34;6182532;23;20028;-81
2023/10/07 07:58:49;;;;;;;1.00;1.00;;;;;;;1.12;100.00;97414.06;6181858;23;20021;-81
2023/10/07 08:01:28;;;;;;;0.90;0.90;;;;;;;1.04;100.00;97384.13;6182360;23;20031;-81
2023/10/07 08:03:59;;;;;;;1.00;1.00;;;;;;;1.14;100.00;97362.34;6183398;23;20032;-82
2023/10/07 08:06:27;;;;;;;1.10;1.10;;;;;;;1.14;100.00;97354.38;6180710;23;20080;-81
2023/10/07 08:09:02;;;;;;;0.90;0.90;;;;;;;1.27;100.00;97348.88;6182196;23;20048;-82
2023/10/07 08:11:36;;;;;;;1.10;1.10;;;;;;;1.23;100.00;97329.06;6183933;23;20045;-81
2023/10/07 08:14:09;;;;;;;1.00;1.00;;;;;;;1.28;100.00;97312.47;6182634;23;20027;-81
2023/10/07 08:16:50;;;;;;;1.10;1.10;;;;;;;1.36;100.00;97292.72;6181342;23;20116;-81
2023/10/07 08:19:23;;;;;;;1.00;1.00;;;;;;;1.38;100.00;97285.34;6183753;23;20035;-81
2023/10/07 08:21:53;;;;;;;1.00;1.00;;;;;;;1.39;100.00;97278.97;6179162;23;20027;-80
2023/10/07 08:24:22;;;;;;;1.00;1.00;;;;;;;1.45;100.00;97267.44;6179886;23;20083;-80
2023/10/07 08:26:59;;;;;;;0.80;0.80;;;;;;;1.48;100.00;97267.78;6182275;23;20044;-80
2023/10/07 08:29:33;;;;;;;0.90;0.90;;;;;;;1.52;100.00;97262.84;6185977;23;20049;-81
2023/10/07 08:35:18;;;;;;;1.05;1.05;;;;;;;1.60;100.00;97248.41;6151468;23;20117;-80
2023/10/07 08:37:46;;;;;;;1.00;1.00;;;;;;;1.62;100.00;97252.44;6150831;23;20401;-80
2023/10/07 08:40:26;;;;;;;1.00;1.00;;;;;;;1.63;100.00;97219.47;6151010;23;20112;-79
2023/10/07 08:43:00;;;;;;;0.90;0.90;;;;;;;1.63;100.00;97231.97;6150226;23;20413;-81
2023/10/07 08:45:28;;;;;;;0.77;0.77;;;;;;;1.62;100.00;97209.91;6150664;23;20041;-79
2023/10/07 08:48:08;;;;;;;1.10;1.10;;;;;;;1.71;100.00;97208.50;6126394;23;20025;-79
2023/10/07 08:50:59;;;;;;;1.00;1.00;;;;;;;1.78;100.00;97186.31;6150517;23;20089;-81
2023/10/07 08:53:26;;;;;;;1.00;1.00;;;;;;;1.80;100.00;97186.84;6131552;23;20053;-81
2023/10/07 08:55:56;;;;;;;1.00;1.00;;;;;;;1.86;100.00;97178.75;6150717;23;20021;-81
2023/10/07 08:58:27;;;;;;;1.00;1.00;;;;;;;1.81;100.00;97177.84;6151262;23;20056;-81
2023/10/07 09:00:56;;;;;;;0.90;0.90;;;;;;;1.83;100.00;97147.31;6152265;23;20523;-81
2023/10/07 09:03:28;;;;;;;1.00;1.00;;;;;;;1.81;100.00;97140.63;6152745;23;20025;-81
2023/10/07 09:06:06;;;;;;;1.00;1.00;;;;;;;1.88;100.00;97157.25;6152548;23;20084;-80
2023/10/07 09:08:36;;;;;;;0.90;0.90;;;;;;;1.93;100.00;97144.88;6161537;23;20053;-81
2023/10/07 09:11:07;;;;;;;1.00;1.00;;;;;;;1.96;100.00;97130.28;6185310;23;20021;-80
2023/10/07 09:13:38;;;;;;;1.00;1.00;;;;;;;1.99;100.00;97121.81;6185434;23;20017;-80
2023/10/07 09:16:10;;;;;;;0.88;0.88;;;;;;;1.98;100.00;97095.47;6184271;23;20021;-83
2023/10/07 09:18:56;;;;;;;0.88;0.88;;;;;;;1.99;100.00;97108.53;6184186;23;20025;-81
2023/10/07 09:21:28;;;;;;;0.88;0.88;;;;;;;2.04;100.00;97105.16;6184579;23;20021;-82
2023/10/07 09:24:03;;;;;;;1.00;1.00;;;;;;;2.11;100.00;97063.25;6185630;23;20032;-82
2023/10/07 09:26:33;;;;;;;1.00;1.00;;;;;;;2.09;100.00;97082.13;6184184;23;20024;-83
2023/10/07 09:29:15;;;;;;;1.00;1.00;;;;;;;2.06;100.00;97045.34;6182956;23;20025;-84
2023/10/07 09:31:45;;;;;;;0.90;0.90;;;;;;;2.21;100.00;97047.47;6182637;23;20032;-82
2023/10/07 09:34:30;;;;;;;0.80;0.80;;;;;;;2.17;100.00;97049.78;6184522;23;20108;-83
2023/10/07 09:37:08;;;;;;;1.00;1.00;;;;;;;2.16;100.00;97037.53;6182520;23;20464;-83
2023/10/07 09:39:44;;;;;;;1.00;1.00;;;;;;;2.21;100.00;97017.41;6136169;23;20021;-82
2023/10/07 09:42:36;;;;;;;;;;;;;;;;;;;;;
2023/10/07 09:47:38;;;;;;;1.00;1.00;;;;;;;2.27;100.00;97006.59;5988241;23;20027;-79
2023/10/07 09:50:27;;;;;;;0.90;0.90;;;;;;;2.34;100.00;96969.97;6034999;23;20451;-84
2023/10/07 09:53:24;;;;;;;0.90;0.90;;;;;;;2.26;100.00;96980.22;5972229;23;20027;-82
2023/10/07 09:56:11;;;;;;;0.90;0.90;;;;;;;2.46;100.00;96966.44;6011750;23;20034;-83
2023/10/07 09:59:15;;;;;;;0.98;0.98;;;;;;;2.49;100.00;96945.47;6036900;23;20440;-82
2023/10/07 10:02:25;;;;;;;0.90;0.90;;;;;;;2.53;100.00;96932.44;6033496;23;20026;-83
2023/10/07 10:05:31;;;;;;;0.90;0.90;;;;;;;2.57;100.00;96918.41;5923325;24;20024;-81
2023/10/07 10:08:19;;;;;;;0.88;0.88;;;;;;;2.64;100.00;96923.59;5923649;24;20029;-83
2023/10/07 10:10:49;;;;;;;0.90;0.90;;;;;;;2.68;100.00;96918.56;5923796;24;20029;-81
2023/10/07 10:16:29;;;;;;;0.93;0.93;;;;;;;2.76;100.00;96910.13;5869641;24;20026;-82
2023/10/07 10:19:37;;;;;;;1.00;1.00;;;;;;;2.86;100.00;96881.00;5877788;24;20466;-81
2023/10/07 10:22:13;;;;;;;1.00;1.00;;;;;;;2.93;100.00;96880.81;5902779;24;20156;-82
2023/10/07 10:24:43;;;;;;;0.77;0.77;;;;;;;2.97;100.00;96874.75;5900359;24;20148;-83
2023/10/07 10:27:13;;;;;;;0.90;0.90;;;;;;;3.01;100.00;96853.72;5922387;24;20377;-82
2023/10/07 10:30:03;;;;;;;1.00;1.00;;;;;;;3.06;100.00;96850.31;5922181;24;20108;-82
2023/10/07 10:32:36;;;;;;;0.90;0.90;;;;;;;3.13;100.00;96840.28;5923492;24;20112;-86
2023/10/07 10:35:10;;;;;;;0.90;0.90;;;;;;;3.06;100.00;96829.00;5923644;24;20048;-84
2023/10/07 10:37:38;;;;;;;0.98;0.98;;;;;;;3.19;100.00;96820.59;5924906;24;20056;-84
2023/10/07 10:40:14;;;;;;;0.90;0.90;;;;;;;3.28;100.00;96800.44;5904131;24;20029;-83
2023/10/07 10:42:49;;;;;;;0.90;0.90;;;;;;;3.34;100.00;96788.78;5978617;24;20033;-82
2023/10/07 10:45:19;;;;;;;0.90;0.90;;;;;;;3.35;100.00;96778.94;5954672;24;20024;-84
2023/10/07 10:48:08;;;;;;;1.00;1.00;;;;;;;3.27;100.00;96761.53;5953717;24;20112;-81
2023/10/07 10:50:35;;;;;;;0.85;0.85;;;;;;;3.30;100.00;96755.69;5977371;24;20028;-83
2023/10/07 10:53:05;;;;;;;0.90;0.90;;;;;;;3.34;100.00;96756.81;6080141;23;20027;-82
2023/10/07 10:55:35;;;;;;;0.90;0.90;;;;;;;3.45;100.00;96768.34;6068061;23;20105;-83
2023/10/07 10:58:13;;;;;;;0.90;0.90;;;;;;;3.39;100.00;96759.50;6043192;23;20058;-83
2023/10/07 11:00:54;;;;;;;0.90;0.90;;;;;;;3.40;100.00;96760.31;6091628;23;20367;-82
2023/10/07 11:03:22;;;;;;;0.90;0.90;;;;;;;3.41;100.00;96744.03;6092006;23;20097;-82
2023/10/07 11:05:58;;;;;;;0.90;0.90;;;;;;;3.45;100.00;96733.69;6067774;23;20033;-83
2023/10/07 11:08:26;;;;;;;0.98;0.98;;;;;;;3.49;100.00;96729.44;6091950;23;20026;-83
2023/10/07 11:10:59;;;;;;;0.93;0.93;;;;;;;3.54;100.00;96728.69;6043975;23;20362;-84
2023/10/07 11:13:32;;;;;;;0.90;0.90;;;;;;;3.60;100.00;96722.34;6063406;23;20026;-83
2023/10/07 11:16:11;;;;;;;0.90;0.90;;;;;;;3.54;100.00;96694.81;6088360;23;20026;-85
2023/10/07 11:18:51;;;;;;;0.80;0.80;;;;;;;3.59;100.00;96668.16;6089453;23;20026;-86
2023/10/07 11:21:21;;;;;;;0.90;0.90;;;;;;;3.67;100.00;96682.88;6088835;23;20624;-85
2023/10/07 11:23:52;;;;;;;0.80;0.80;;;;;;;3.65;100.00;96669.03;6086794;23;20478;-86
2023/10/07 11:26:26;;;;;;;0.90;0.90;;;;;;;3.71;100.00;96684.00;6063871;23;20520;-85
2023/10/07 11:29:11;;;;;;;0.90;0.90;;;;;;;3.79;100.00;96661.38;6087615;23;20033;-85
2023/10/07 11:31:41;;;;;;;1.00;1.00;;;;;;;3.75;100.00;96639.75;6089627;23;20781;-84
2023/10/07 11:34:10;;;;;;;0.90;0.90;;;;;;;3.86;100.00;96641.41;6067677;23;20022;-84
2023/10/07 11:36:45;;;;;;;0.93;0.93;;;;;;;3.92;100.00;96618.19;6092055;23;20038;-85
2023/10/07 11:39:15;;;;;;;0.80;0.80;;;;;;;3.97;100.00;96615.56;6065974;23;20054;-84
2023/10/07 11:41:47;;;;;;;0.90;0.90;;;;;;;4.06;100.00;96607.88;6094265;23;20097;-84
2023/10/07 11:44:32;;;;;;;0.90;0.90;;;;;;;4.01;100.00;96599.84;6090207;23;20450;-85
2023/10/07 11:46:59;;;;;;;0.90;0.90;;;;;;;4.13;100.00;96597.75;6067285;23;20033;-85
2023/10/07 11:49:27;;;;;;;0.90;0.90;;;;;;;4.10;100.00;96582.25;6104779;23;20022;-85
2023/10/07 11:51:54;;;;;;;0.80;0.80;;;;;;;4.09;100.00;96564.63;6084087;23;20046;-85
2023/10/07 11:54:24;;;;;;;0.90;0.90;;;;;;;4.15;100.00;96573.44;6086401;23;20309;-84
2023/10/07 11:56:54;;;;;;;0.88;0.88;;;;;;;4.23;100.00;96565.75;6100466;23;20161;-86
2023/10/07 11:59:21;;;;;;;0.80;0.80;;;;;;;4.21;100.00;96545.72;6048107;23;20094;-85
2023/10/07 12:01:53;;;;;;;0.82;0.82;;;;;;;4.29;100.00;96551.34;6096373;23;20501;-87
2023/10/07 12:04:21;;;;;;;0.90;0.90;;;;;;;4.33;100.00;96565.78;6093461;23;20050;-85
2023/10/07 12:06:51;;;;;;;0.93;0.93;;;;;;;4.36;100.00;96531.59;6092615;23;20033;-86
2023/10/07 12:09:21;;;;;;;0.90;0.90;;;;;;;4.37;100.00;96525.19;6069027;23;20022;-86
2023/10/07 12:11:53;;;;;;;0.90;0.90;;;;;;;4.44;100.00;96526.53;6093235;23;20027;-86
2023/10/07 12:14:22;;;;;;;0.88;0.88;;;;;;;4.52;100.00;96530.53;6069375;23;20030;-86
2023/10/07 12:16:50;;;;;;;0.90;0.90;;;;;;;4.56;100.00;96510.25;6091900;23;20022;-86
2023/10/07 12:19:17;;;;;;;0.80;0.80;;;;;;;4.60;100.00;96507.84;6091976;23;20026;-85
2023/10/07 12:21:47;;;;;;;0.90;0.90;;;;;;;4.60;100.00;96487.25;6092602;23;20102;-87
2023/10/07 12:24:18;;;;;;;0.90;0.90;;;;;;;4.63;100.00;96489.38;6091320;23;20025;-87
2023/10/07 12:26:51;;;;;;;0.90;0.90;;;;;;;4.58;100.00;96486.72;6067895;23;20030;-87
2023/10/07 12:29:18;;;;;;;0.80;0.80;;;;;;;4.68;100.00;96460.00;6020851;23;20050;-87
2023/10/07 12:31:47;;;;;;;0.90;0.90;;;;;;;4.71;100.00;96464.00;6092124;23;20029;-87
2023/10/07 12:34:21;;;;;;;0.80;0.80;;;;;;;4.73;100.00;96465.34;6092028;23;20037;-86
2023/10/07 12:36:52;;;;;;;0.90;0.90;;;;;;;4.72;100.00;96430.88;6090913;23;20036;-89
2023/10/07 12:39:23;;;;;;;0.90;0.90;;;;;;;4.71;100.00;96416.75;6068030;23;20110;-87
2023/10/07 12:41:50;;;;;;;0.90;0.90;;;;;;;4.89;100.00;96420.72;6091712;23;20363;-86
2023/10/07 12:44:17;;;;;;;0.90;0.90;;;;;;;4.94;100.00;96401.19;6042781;23;20023;-86
2023/10/07 12:46:45;;;;;;;0.90;0.90;;;;;;;5.10;100.00;96391.25;6096709;23;20433;-86
2023/10/07 12:49:15;;;;;;;0.90;0.90;;;;;;;4.97;100.00;96371.25;6075895;23;20091;-88
2023/10/07 12:51:45;;;;;;;0.90;0.90;;;;;;;5.08;100.00;96385.38;6156735;23;20448;-87
2023/10/07 12:54:13;;;;;;;0.80;0.80;;;;;;;5.01;100.00;96364.25;6161771;23;20040;-85
2023/10/07 12:56:46;;;;;;;0.90;0.90;;;;;;;5.02;100.00;96357.84;6178413;23;20602;-87
2023/10/07 12:59:21;;;;;;;0.85;0.85;;;;;;;5.08;100.00;96372.78;6179000;23;20028;-88
2023/10/07 13:01:56;;;;;;;0.80;0.80;;;;;;;5.07;100.00;96352.50;6182187;23;20025;-86
2023/10/07 13:04:34;;;;;;;0.90;0.90;;;;;;;5.14;100.00;96350.31;6132019;23;20104;-86